createdAt,value
2022-08-03T00:00:07.414Z,0.00
2022-08-03T00:01:07.420Z,0.00
2022-08-03T00:02:08.200Z,0.00
2022-08-03T00:03:07.462Z,0.00
2022-08-03T00:04:07.369Z,0.00
2022-08-03T00:05:07.357Z,0.00
2022-08-03T00:06:07.368Z,0.00
2022-08-03T00:07:07.472Z,0.00
2022-08-03T00:08:07.342Z,0.00
2022-08-03T00:09:07.311Z,0.00
2022-08-03T00:10:07.302Z,0.00
2022-08-03T00:11:07.690Z,0.00
2022-08-03T00:12:07.280Z,0.00
2022-08-03T00:13:07.278Z,0.00
2022-08-03T00:14:07.285Z,0.00
2022-08-03T00:15:10.523Z,0.00
2022-08-03T00:16:08.251Z,0.00
2022-08-03T00:17:07.219Z,0.00
2022-08-03T00:18:07.213Z,0.00
2022-08-03T00:19:08.164Z,0.00
2022-08-03T00:20:07.202Z,0.00
2022-08-03T00:21:07.198Z,0.00
2022-08-03T00:22:07.357Z,0.00
2022-08-03T00:23:07.154Z,0.00
2022-08-03T00:24:07.147Z,0.00
2022-08-03T00:25:07.133Z,0.00
2022-08-03T00:26:07.142Z,0.00
2022-08-03T00:27:07.105Z,0.00
2022-08-03T00:28:07.094Z,0.00
2022-08-03T00:29:07.095Z,0.00
2022-08-03T00:30:07.073Z,0.00
2022-08-03T00:31:07.076Z,0.00
2022-08-03T00:32:07.048Z,0.00
2022-08-03T00:33:07.039Z,0.00
2022-08-03T00:34:07.028Z,0.00
2022-08-03T00:35:09.256Z,0.00
2022-08-03T00:36:07.007Z,0.00
2022-08-03T00:37:06.994Z,0.00
2022-08-03T00:38:06.984Z,0.00
2022-08-03T00:39:06.972Z,0.00
2022-08-03T00:40:06.967Z,0.00
2022-08-03T00:41:06.980Z,0.00
2022-08-03T00:42:06.935Z,0.00
2022-08-03T00:43:08.613Z,0.00
2022-08-03T00:44:06.929Z,0.00
2022-08-03T00:45:07.653Z,0.00
2022-08-03T00:46:06.906Z,0.00
2022-08-03T00:47:06.894Z,0.00
2022-08-03T00:48:06.869Z,0.00
2022-08-03T00:49:08.087Z,0.00
2022-08-03T00:50:06.852Z,0.00
2022-08-03T00:51:06.860Z,0.00
2022-08-03T00:52:09.559Z,0.00
2022-08-03T00:53:06.813Z,0.00
2022-08-03T00:54:06.802Z,0.00
2022-08-03T00:55:06.817Z,0.00
2022-08-03T00:56:06.795Z,0.00
2022-08-03T00:57:06.773Z,0.00
2022-08-03T00:58:06.770Z,0.00
2022-08-03T00:59:06.753Z,0.00
2022-08-03T01:00:06.803Z,0.00
2022-08-03T01:01:06.841Z,0.00
2022-08-03T01:02:07.079Z,0.00
2022-08-03T01:03:06.719Z,0.00
2022-08-03T01:04:06.692Z,0.00
2022-08-03T01:05:06.699Z,0.00
2022-08-03T01:06:06.691Z,0.00
2022-08-03T01:07:06.675Z,0.00
2022-08-03T01:08:06.649Z,0.00
2022-08-03T01:09:06.665Z,0.00
2022-08-03T01:10:06.641Z,0.00
2022-08-03T01:11:06.622Z,0.00
2022-08-03T01:12:06.612Z,0.00
2022-08-03T01:13:06.694Z,0.00
2022-08-03T01:14:18.336Z,0.00
2022-08-03T01:15:07.571Z,0.00
2022-08-03T01:16:06.557Z,0.00
2022-08-03T01:17:06.552Z,0.00
2022-08-03T01:18:06.550Z,0.00
2022-08-03T01:19:06.552Z,0.00
2022-08-03T01:20:06.510Z,0.00
2022-08-03T01:21:06.500Z,0.00
2022-08-03T01:22:06.506Z,0.00
2022-08-03T01:23:06.499Z,0.00
2022-08-03T01:24:06.470Z,0.00
2022-08-03T01:25:06.466Z,0.00
2022-08-03T01:26:06.447Z,0.00
2022-08-03T01:27:06.433Z,0.00
2022-08-03T01:28:06.451Z,0.00
2022-08-03T01:29:06.422Z,0.00
2022-08-03T01:30:06.625Z,0.00
2022-08-03T01:31:06.391Z,0.00
2022-08-03T01:32:59.363Z,0.00
2022-08-03T01:33:07.678Z,0.00
2022-08-03T01:34:06.406Z,0.00
2022-08-03T01:35:06.374Z,0.00
2022-08-03T01:36:07.126Z,0.00
2022-08-03T01:37:06.691Z,0.00
2022-08-03T01:38:06.378Z,0.00
2022-08-03T01:39:06.319Z,0.00
2022-08-03T01:40:06.293Z,0.00
2022-08-03T01:41:06.283Z,0.00
2022-08-03T01:42:06.316Z,0.00
2022-08-03T01:43:06.268Z,0.00
2022-08-03T01:44:29.570Z,0.00
2022-08-03T01:45:07.231Z,0.00
2022-08-03T01:46:06.221Z,0.00
2022-08-03T01:47:06.243Z,0.00
2022-08-03T01:48:06.193Z,0.00
2022-08-03T01:49:09.257Z,0.00
2022-08-03T01:50:06.170Z,0.00
2022-08-03T01:51:06.170Z,0.00
2022-08-03T01:52:06.167Z,0.00
2022-08-03T01:53:06.160Z,0.00
2022-08-03T01:54:06.127Z,0.00
2022-08-03T01:55:06.685Z,0.00
2022-08-03T01:56:06.106Z,0.00
2022-08-03T01:57:06.099Z,0.00
2022-08-03T01:58:06.935Z,0.00
2022-08-03T01:59:06.069Z,0.00
2022-08-03T02:00:06.059Z,0.00
2022-08-03T02:01:06.141Z,0.00
2022-08-03T02:02:32.270Z,0.00
2022-08-03T02:03:07.044Z,0.00
2022-08-03T02:04:06.017Z,0.00
2022-08-03T02:05:06.446Z,0.00
2022-08-03T02:07:02.872Z,0.00
2022-08-03T02:07:06.984Z,0.00
2022-08-03T02:08:06.677Z,0.00
2022-08-03T02:09:05.968Z,0.00
2022-08-03T02:10:05.945Z,0.00
2022-08-03T02:11:05.937Z,0.00
2022-08-03T02:12:06.739Z,0.00
2022-08-03T02:13:13.023Z,0.00
2022-08-03T02:14:05.911Z,0.00
2022-08-03T02:15:05.888Z,0.00
2022-08-03T02:16:05.885Z,0.00
2022-08-03T02:17:05.861Z,0.00
2022-08-03T02:18:05.863Z,0.00
2022-08-03T02:19:05.855Z,0.00
2022-08-03T02:20:05.829Z,0.00
2022-08-03T02:21:11.027Z,0.00
2022-08-03T02:22:06.805Z,0.00
2022-08-03T02:23:05.814Z,0.00
2022-08-03T02:24:05.783Z,0.00
2022-08-03T02:25:05.778Z,0.00
2022-08-03T02:26:05.759Z,0.00
2022-08-03T02:27:05.801Z,0.00
2022-08-03T02:28:05.775Z,0.00
2022-08-03T02:29:05.730Z,0.00
2022-08-03T02:30:05.716Z,0.00
2022-08-03T02:31:05.705Z,0.00
2022-08-03T02:32:05.691Z,0.00
2022-08-03T02:33:05.682Z,0.00
2022-08-03T02:34:05.684Z,0.00
2022-08-03T02:35:05.659Z,0.00
2022-08-03T02:36:05.651Z,0.00
2022-08-03T02:37:05.634Z,0.00
2022-08-03T02:38:05.623Z,0.00
2022-08-03T02:39:05.683Z,0.00
2022-08-03T02:40:05.604Z,0.00
2022-08-03T02:41:05.592Z,0.00
2022-08-03T02:42:05.890Z,0.00
2022-08-03T02:43:05.567Z,0.00
2022-08-03T02:44:07.422Z,0.00
2022-08-03T02:45:05.561Z,0.00
2022-08-03T02:46:05.564Z,0.00
2022-08-03T02:47:05.525Z,0.00
2022-08-03T02:48:05.520Z,0.00
2022-08-03T02:49:40.462Z,0.00
2022-08-03T02:50:07.536Z,0.00
2022-08-03T02:51:05.486Z,0.00
2022-08-03T02:52:05.465Z,0.00
2022-08-03T02:53:06.452Z,0.00
2022-08-03T02:54:05.462Z,4.00
2022-08-03T02:55:05.429Z,4.00
2022-08-03T02:56:05.422Z,4.00
2022-08-03T02:57:05.407Z,0.00
2022-08-03T02:58:05.399Z,4.00
2022-08-03T02:59:05.388Z,4.00
2022-08-03T03:00:05.393Z,8.00
2022-08-03T03:01:05.555Z,4.00
2022-08-03T03:02:05.362Z,8.00
2022-08-03T03:03:05.346Z,8.00
2022-08-03T03:04:05.350Z,8.00
2022-08-03T03:05:54.491Z,12.00
2022-08-03T03:06:06.304Z,12.00
2022-08-03T03:07:05.295Z,12.00
2022-08-03T03:08:05.285Z,12.00
2022-08-03T03:09:06.289Z,16.00
2022-08-03T03:10:05.266Z,16.00
2022-08-03T03:11:05.248Z,20.00
2022-08-03T03:12:05.239Z,24.00
2022-08-03T03:13:05.225Z,28.00
2022-08-03T03:14:05.217Z,32.00
2022-08-03T03:15:05.221Z,36.00
2022-08-03T03:16:05.192Z,40.00
2022-08-03T03:17:05.183Z,52.00
2022-08-03T03:18:05.687Z,56.00
2022-08-03T03:19:05.188Z,64.00
2022-08-03T03:20:05.151Z,72.00
2022-08-03T03:21:05.158Z,84.00
2022-08-03T03:22:05.128Z,92.00
2022-08-03T03:23:05.127Z,104.00
2022-08-03T03:24:05.103Z,116.00
2022-08-03T03:25:05.090Z,128.00
2022-08-03T03:26:05.103Z,136.00
2022-08-03T03:27:05.066Z,152.00
2022-08-03T03:28:06.217Z,164.00
2022-08-03T03:29:05.074Z,180.00
2022-08-03T03:30:05.036Z,192.00
2022-08-03T03:31:05.039Z,204.00
2022-08-03T03:32:05.014Z,220.00
2022-08-03T03:33:05.143Z,240.00
2022-08-03T03:34:04.989Z,256.00
2022-08-03T03:35:04.974Z,276.00
2022-08-03T03:36:04.967Z,296.00
2022-08-03T03:37:04.970Z,316.00
2022-08-03T03:38:04.943Z,340.00
2022-08-03T03:39:15.718Z,360.00
2022-08-03T03:40:05.921Z,380.00
2022-08-03T03:41:04.920Z,408.00
2022-08-03T03:42:04.901Z,432.00
2022-08-03T03:43:04.885Z,464.00
2022-08-03T03:44:04.879Z,504.00
2022-08-03T03:45:04.862Z,540.00
2022-08-03T03:46:04.886Z,576.00
2022-08-03T03:47:04.839Z,604.00
2022-08-03T03:48:04.829Z,632.00
2022-08-03T03:49:04.864Z,660.00
2022-08-03T03:50:04.879Z,684.00
2022-08-03T03:51:04.818Z,708.00
2022-08-03T03:52:04.814Z,724.00
2022-08-03T03:53:04.775Z,740.00
2022-08-03T03:54:04.759Z,760.00
2022-08-03T03:55:04.751Z,796.00
2022-08-03T03:56:04.751Z,844.00
2022-08-03T03:57:04.732Z,896.00
2022-08-03T03:58:04.718Z,936.00
2022-08-03T03:59:04.700Z,964.00
2022-08-03T04:00:04.692Z,984.00
2022-08-03T04:01:04.719Z,996.00
2022-08-03T04:02:04.668Z,1012.00
2022-08-03T04:03:04.654Z,1028.00
2022-08-03T04:04:04.648Z,1044.00
2022-08-03T04:05:04.633Z,1068.00
2022-08-03T04:06:04.628Z,1100.00
2022-08-03T04:07:04.677Z,1140.00
2022-08-03T04:08:04.603Z,1176.00
2022-08-03T04:09:04.590Z,1228.00
2022-08-03T04:10:08.863Z,1288.00
2022-08-03T04:11:05.803Z,1344.00
2022-08-03T04:12:04.566Z,1396.00
2022-08-03T04:13:04.542Z,1460.00
2022-08-03T04:14:04.552Z,1520.00
2022-08-03T04:15:04.517Z,1576.00
2022-08-03T04:16:04.540Z,1612.00
2022-08-03T04:17:04.497Z,1664.00
2022-08-03T04:18:04.620Z,1708.00
2022-08-03T04:19:04.473Z,1736.00
2022-08-03T04:20:04.479Z,1760.00
2022-08-03T04:21:04.452Z,1788.00
2022-08-03T04:22:04.571Z,1812.00
2022-08-03T04:23:04.428Z,1832.00
2022-08-03T04:24:05.535Z,1852.00
2022-08-03T04:25:04.406Z,1876.00
2022-08-03T04:26:04.410Z,1904.00
2022-08-03T04:27:04.380Z,1932.00
2022-08-03T04:28:29.601Z,1960.00
2022-08-03T04:29:05.359Z,2000.00
2022-08-03T04:30:04.351Z,2056.00
2022-08-03T04:31:04.352Z,2116.00
2022-08-03T04:32:04.327Z,2180.00
2022-08-03T04:33:04.319Z,2220.00
2022-08-03T04:34:04.318Z,2272.00
2022-08-03T04:35:04.776Z,2332.00
2022-08-03T04:36:04.285Z,2384.00
2022-08-03T04:37:04.269Z,2428.00
2022-08-03T04:38:04.275Z,2460.00
2022-08-03T04:39:04.247Z,2472.00
2022-08-03T04:40:04.244Z,2480.00
2022-08-03T04:41:04.356Z,2480.00
2022-08-03T04:42:08.100Z,2464.00
2022-08-03T04:43:04.385Z,2440.00
2022-08-03T04:44:04.191Z,2412.00
2022-08-03T04:45:04.177Z,2392.00
2022-08-03T04:46:04.173Z,2384.00
2022-08-03T04:47:04.158Z,2384.00
2022-08-03T04:48:04.159Z,2392.00
2022-08-03T04:49:04.152Z,2404.00
2022-08-03T04:50:04.955Z,2424.00
2022-08-03T04:51:04.111Z,2448.00
2022-08-03T04:52:04.723Z,2476.00
2022-08-03T04:53:04.112Z,2496.00
2022-08-03T04:54:04.077Z,2520.00
2022-08-03T04:55:04.063Z,2540.00
2022-08-03T04:56:04.055Z,2564.00
2022-08-03T04:57:04.042Z,2588.00
2022-08-03T04:58:04.045Z,2608.00
2022-08-03T04:59:04.020Z,2636.00
2022-08-03T05:00:04.021Z,2648.00
2022-08-03T05:01:03.996Z,2660.00
2022-08-03T05:02:04.053Z,2676.00
2022-08-03T05:03:03.995Z,2700.00
2022-08-03T05:04:04.962Z,2720.00
2022-08-03T05:05:03.950Z,2740.00
2022-08-03T05:06:11.112Z,2764.00
2022-08-03T05:07:12.527Z,2788.00
2022-08-03T05:08:04.930Z,2812.00
2022-08-03T05:09:04.910Z,2832.00
2022-08-03T05:10:03.902Z,2848.00
2022-08-03T05:11:03.886Z,2872.00
2022-08-03T05:12:03.875Z,2892.00
2022-08-03T05:13:04.729Z,2920.00
2022-08-03T05:14:03.850Z,2940.00
2022-08-03T05:15:03.838Z,2964.00
2022-08-03T05:16:03.827Z,2988.00
2022-08-03T05:17:03.832Z,3008.00
2022-08-03T05:18:03.807Z,3032.00
2022-08-03T05:19:03.794Z,3052.00
2022-08-03T05:20:03.809Z,3072.00
2022-08-03T05:21:05.289Z,3092.00
2022-08-03T05:22:03.766Z,3116.00
2022-08-03T05:23:03.754Z,3136.00
2022-08-03T05:24:03.741Z,3152.00
2022-08-03T05:25:03.771Z,3180.00
2022-08-03T05:26:03.739Z,3200.00
2022-08-03T05:27:03.701Z,3224.00
2022-08-03T05:28:03.696Z,3248.00
2022-08-03T05:29:03.684Z,3268.00
2022-08-03T05:30:29.786Z,3288.00
2022-08-03T05:31:04.673Z,3312.00
2022-08-03T05:32:08.023Z,3336.00
2022-08-03T05:33:03.643Z,3352.00
2022-08-03T05:34:03.631Z,3384.00
2022-08-03T05:36:01.149Z,3396.00
2022-08-03T05:36:04.723Z,3420.00
2022-08-03T05:37:03.593Z,3444.00
2022-08-03T05:38:03.578Z,3468.00
2022-08-03T05:39:03.583Z,3480.00
2022-08-03T05:40:03.572Z,3504.00
2022-08-03T05:41:22.031Z,3528.00
2022-08-03T05:42:04.534Z,3552.00
2022-08-03T05:43:04.285Z,3572.00
2022-08-03T05:44:03.512Z,3600.00
2022-08-03T05:45:03.503Z,3620.00
2022-08-03T05:46:12.539Z,3648.00
2022-08-03T05:47:04.674Z,3668.00
2022-08-03T05:48:03.468Z,3696.00
2022-08-03T05:49:03.532Z,3720.00
2022-08-03T05:50:03.446Z,3748.00
2022-08-03T05:51:03.447Z,3776.00
2022-08-03T05:52:11.976Z,3804.00
2022-08-03T05:53:05.239Z,3828.00
2022-08-03T05:54:03.403Z,3864.00
2022-08-03T05:55:03.387Z,3896.00
2022-08-03T05:56:13.101Z,3984.00
2022-08-03T05:57:04.367Z,4124.00
2022-08-03T05:58:03.747Z,4272.00
2022-08-03T05:59:22.484Z,4400.00
2022-08-03T06:00:04.342Z,4524.00
2022-08-03T06:01:03.317Z,4644.00
2022-08-03T06:02:03.366Z,4756.00
2022-08-03T06:03:03.293Z,4868.00
2022-08-03T06:04:03.299Z,4972.00
2022-08-03T06:05:03.300Z,5084.00
2022-08-03T06:06:03.269Z,5212.00
2022-08-03T06:07:03.251Z,5324.00
2022-08-03T06:08:03.243Z,5460.00
2022-08-03T06:09:03.243Z,5596.00
2022-08-03T06:10:35.857Z,5744.00
2022-08-03T06:11:04.203Z,5904.00
2022-08-03T06:12:03.212Z,6104.00
2022-08-03T06:13:03.555Z,6296.00
2022-08-03T06:14:03.172Z,6464.00
2022-08-03T06:15:03.164Z,6608.00
2022-08-03T06:16:03.195Z,6748.00
2022-08-03T06:17:03.319Z,6876.00
2022-08-03T06:18:03.130Z,7004.00
2022-08-03T06:19:03.127Z,7120.00
2022-08-03T06:20:03.109Z,7224.00
2022-08-03T06:21:14.922Z,7256.00
2022-08-03T06:22:04.101Z,7316.00
2022-08-03T06:23:03.749Z,7216.00
2022-08-03T06:24:03.067Z,7396.00
2022-08-03T06:25:04.164Z,7952.00
2022-08-03T06:26:03.038Z,8016.00
2022-08-03T06:27:03.041Z,8116.00
2022-08-03T06:28:03.024Z,8232.00
2022-08-03T06:29:03.884Z,8368.00
2022-08-03T06:30:02.995Z,8508.00
2022-08-03T06:31:02.982Z,8628.00
2022-08-03T06:32:02.989Z,8776.00
2022-08-03T06:33:02.964Z,8920.00
2022-08-03T06:34:34.303Z,9068.00
2022-08-03T06:35:03.938Z,9224.00
2022-08-03T06:36:02.963Z,9372.00
2022-08-03T06:37:02.930Z,9536.00
2022-08-03T06:38:02.909Z,9704.00
2022-08-03T06:39:02.900Z,9876.00
2022-08-03T06:40:02.889Z,10036.00
2022-08-03T06:41:02.880Z,10220.00
2022-08-03T06:42:02.883Z,10380.00
2022-08-03T06:43:02.857Z,10564.00
2022-08-03T06:44:04.531Z,10736.00
2022-08-03T06:45:02.841Z,10912.00
2022-08-03T06:46:02.819Z,11080.00
2022-08-03T06:47:02.909Z,11260.00
2022-08-03T06:48:02.797Z,11448.00
2022-08-03T06:49:02.815Z,11632.00
2022-08-03T06:50:12.895Z,11812.00
2022-08-03T06:51:03.761Z,12112.00
2022-08-03T06:52:06.767Z,12424.00
2022-08-03T06:53:02.756Z,12804.00
2022-08-03T06:54:02.728Z,13328.00
2022-08-03T06:55:02.736Z,14004.00
2022-08-03T06:56:02.715Z,15056.00
2022-08-03T06:57:02.704Z,17184.00
2022-08-03T06:58:03.387Z,22880.00
2022-08-03T06:59:02.677Z,32480.00
2022-08-03T07:00:08.851Z,40832.00
2022-08-03T07:01:03.779Z,45024.00
2022-08-03T07:02:02.642Z,47552.00
2022-08-03T07:03:02.678Z,49472.00
2022-08-03T07:04:03.300Z,50304.00
2022-08-03T07:05:02.670Z,51136.00
2022-08-03T07:06:02.600Z,51712.00
2022-08-03T07:07:02.596Z,52416.00
2022-08-03T07:08:02.624Z,52928.00
2022-08-03T07:09:02.591Z,53536.00
2022-08-03T07:10:02.630Z,54176.00
2022-08-03T07:11:02.546Z,54336.00
2022-08-03T07:12:02.555Z,55520.00
2022-08-03T07:13:02.532Z,56192.00
2022-08-03T07:14:02.514Z,56800.00
2022-08-03T07:15:03.340Z,57408.00
2022-08-03T07:16:02.507Z,57792.00
2022-08-03T07:17:04.728Z,58400.00
2022-08-03T07:18:03.502Z,58752.00
2022-08-03T07:19:02.462Z,59200.00
2022-08-03T07:20:02.455Z,59648.00
2022-08-03T07:21:03.311Z,60096.00
2022-08-03T07:22:02.535Z,60512.00
2022-08-03T07:23:02.467Z,60768.00
2022-08-03T07:24:02.409Z,61536.00
2022-08-03T07:25:02.836Z,62048.00
2022-08-03T07:26:02.389Z,62464.00
2022-08-03T07:27:02.395Z,63072.00
2022-08-03T07:28:02.369Z,62976.00
2022-08-03T07:29:02.378Z,63872.00
2022-08-03T07:30:02.467Z,64736.00
2022-08-03T07:31:02.460Z,65248.00
2022-08-03T07:32:02.376Z,65952.00
2022-08-03T07:33:02.404Z,66816.00
2022-08-03T07:34:02.309Z,66976.00
2022-08-03T07:35:02.301Z,67488.00
2022-08-03T07:36:03.288Z,67680.00
2022-08-03T07:37:02.278Z,68256.00
2022-08-03T07:38:02.317Z,69120.00
2022-08-03T07:39:15.887Z,69664.00
2022-08-03T07:40:03.251Z,70400.00
2022-08-03T07:41:02.297Z,72128.00
2022-08-03T07:42:02.358Z,74720.00
2022-08-03T07:43:02.221Z,76288.00
2022-08-03T07:44:02.210Z,77472.00
2022-08-03T07:45:02.198Z,78304.00
2022-08-03T07:46:02.207Z,79168.00
2022-08-03T07:47:03.437Z,79776.00
2022-08-03T07:48:02.164Z,80064.00
2022-08-03T07:49:02.234Z,80640.00
2022-08-03T07:50:02.153Z,80832.00
2022-08-03T07:51:02.156Z,81728.00
2022-08-03T07:52:02.129Z,82240.00
2022-08-03T07:53:02.122Z,83200.00
2022-08-03T07:54:02.108Z,84320.00
2022-08-03T07:55:02.104Z,84768.00
2022-08-03T07:56:02.114Z,84704.00
2022-08-03T07:57:02.825Z,85152.00
2022-08-03T07:58:02.068Z,85856.00
2022-08-03T07:59:02.065Z,85760.00
2022-08-03T08:00:02.815Z,86336.00
2022-08-03T08:01:02.116Z,86688.00
2022-08-03T08:02:02.031Z,87168.00
2022-08-03T08:03:02.021Z,87648.00
2022-08-03T08:04:02.031Z,87456.00
2022-08-03T08:05:05.552Z,88320.00
2022-08-03T08:06:01.992Z,88672.00
2022-08-03T08:07:01.998Z,90016.00
2022-08-03T08:08:01.973Z,91136.00
2022-08-03T08:09:01.989Z,92032.00
2022-08-03T08:10:01.958Z,93856.00
2022-08-03T08:11:01.947Z,94528.00
2022-08-03T08:12:01.935Z,94976.00
2022-08-03T08:13:01.941Z,95584.00
2022-08-03T08:14:11.358Z,95680.00
2022-08-03T08:15:01.937Z,96128.00
2022-08-03T08:16:02.127Z,95744.00
2022-08-03T08:17:05.647Z,96672.00
2022-08-03T08:18:02.885Z,96992.00
2022-08-03T08:19:01.882Z,97376.00
2022-08-03T08:20:02.263Z,98144.00
2022-08-03T08:21:01.886Z,98944.00
2022-08-03T08:22:02.993Z,99328.00
2022-08-03T08:23:02.806Z,99968.00
2022-08-03T08:24:02.332Z,101472.00
2022-08-03T08:25:01.878Z,101312.00
2022-08-03T08:26:01.815Z,101568.00
2022-08-03T08:27:01.805Z,100896.00
2022-08-03T08:28:29.099Z,101408.00
2022-08-03T08:29:02.792Z,102048.00
2022-08-03T08:30:10.438Z,102304.00
2022-08-03T08:31:02.770Z,102144.00
2022-08-03T08:32:01.750Z,103232.00
2022-08-03T08:33:01.754Z,103648.00
2022-08-03T08:34:04.121Z,103200.00
2022-08-03T08:35:02.074Z,103648.00
2022-08-03T08:36:01.735Z,102272.00
2022-08-03T08:37:01.704Z,99776.00
2022-08-03T08:38:05.774Z,98976.00
2022-08-03T08:39:01.684Z,94912.00
2022-08-03T08:40:01.702Z,101216.00
2022-08-03T08:41:01.676Z,102624.00
2022-08-03T08:42:01.662Z,104096.00
2022-08-03T08:43:01.675Z,104864.00
2022-08-03T08:44:01.637Z,105088.00
2022-08-03T08:45:01.648Z,104000.00
2022-08-03T08:46:01.629Z,103264.00
2022-08-03T08:47:01.622Z,103456.00
2022-08-03T08:48:05.419Z,103520.00
2022-08-03T08:49:04.787Z,104640.00
2022-08-03T08:50:10.243Z,104832.00
2022-08-03T08:51:03.470Z,105088.00
2022-08-03T08:52:01.812Z,104864.00
2022-08-03T08:53:01.564Z,105408.00
2022-08-03T08:54:01.848Z,105568.00
2022-08-03T08:55:01.558Z,102112.00
2022-08-03T08:56:01.731Z,105760.00
2022-08-03T08:57:01.533Z,105376.00
2022-08-03T08:58:01.516Z,103968.00
2022-08-03T08:59:01.512Z,104576.00
2022-08-03T09:00:01.564Z,104832.00
2022-08-03T09:01:01.536Z,104000.00
2022-08-03T09:02:01.492Z,103392.00
2022-08-03T09:03:01.468Z,103040.00
2022-08-03T09:04:01.458Z,102208.00
2022-08-03T09:05:06.852Z,102784.00
2022-08-03T09:06:02.601Z,103584.00
2022-08-03T09:07:19.211Z,102464.00
2022-08-03T09:08:02.428Z,102144.00
2022-08-03T09:09:01.914Z,103552.00
2022-08-03T09:10:12.246Z,104704.00
2022-08-03T09:11:03.345Z,106016.00
2022-08-03T09:12:21.086Z,106048.00
2022-08-03T09:13:02.401Z,106720.00
2022-08-03T09:14:01.371Z,106976.00
2022-08-03T09:15:16.432Z,107104.00
2022-08-03T09:16:02.360Z,106752.00
2022-08-03T09:17:01.359Z,107488.00
2022-08-03T09:18:01.353Z,108736.00
2022-08-03T09:19:01.340Z,109568.00
2022-08-03T09:20:03.564Z,109760.00
2022-08-03T09:21:14.800Z,109504.00
2022-08-03T09:22:02.304Z,109600.00
2022-08-03T09:23:01.310Z,110880.00
2022-08-03T09:24:03.913Z,109632.00
2022-08-03T09:25:23.170Z,109376.00
2022-08-03T09:26:02.270Z,107968.00
2022-08-03T09:27:01.265Z,108768.00
2022-08-03T09:28:01.406Z,109280.00
2022-08-03T09:29:05.948Z,108096.00
2022-08-03T09:30:02.241Z,107904.00
2022-08-03T09:31:01.236Z,108800.00
2022-08-03T09:32:01.255Z,109440.00
2022-08-03T09:33:01.213Z,109056.00
2022-08-03T09:34:01.209Z,109472.00
2022-08-03T09:35:01.195Z,110336.00
2022-08-03T09:36:01.204Z,109888.00
2022-08-03T09:37:01.184Z,109344.00
2022-08-03T09:38:12.213Z,109504.00
2022-08-03T09:39:02.165Z,106720.00
2022-08-03T09:40:01.156Z,106912.00
2022-08-03T09:41:01.313Z,108032.00
2022-08-03T09:42:01.139Z,107296.00
2022-08-03T09:43:01.132Z,107264.00
2022-08-03T09:44:01.120Z,104672.00
2022-08-03T09:45:01.131Z,107840.00
2022-08-03T09:46:01.130Z,107744.00
2022-08-03T09:47:01.131Z,107552.00
2022-08-03T09:48:01.084Z,108704.00
2022-08-03T09:49:01.157Z,108000.00
2022-08-03T09:50:01.070Z,108576.00
2022-08-03T09:51:14.141Z,108608.00
2022-08-03T09:52:33.568Z,108352.00
2022-08-03T09:53:02.121Z,108896.00
2022-08-03T09:54:01.038Z,108832.00
2022-08-03T09:55:01.045Z,107840.00
2022-08-03T09:56:34.378Z,109504.00
2022-08-03T09:57:02.014Z,109152.00
2022-08-03T09:58:01.218Z,110304.00
2022-08-03T09:59:00.999Z,110016.00
2022-08-03T10:00:06.284Z,109792.00
2022-08-03T10:01:02.078Z,109440.00
2022-08-03T10:02:00.974Z,107712.00
2022-08-03T10:03:00.967Z,110016.00
2022-08-03T10:04:05.191Z,109984.00
2022-08-03T10:05:00.964Z,110784.00
2022-08-03T10:06:00.947Z,110368.00
2022-08-03T10:07:00.932Z,111584.00
2022-08-03T10:08:00.923Z,111296.00
2022-08-03T10:09:00.932Z,108448.00
2022-08-03T10:10:30.709Z,109824.00
2022-08-03T10:11:01.901Z,111264.00
2022-08-03T10:12:00.892Z,109152.00
2022-08-03T10:13:00.885Z,112128.00
2022-08-03T10:14:01.273Z,111520.00
2022-08-03T10:15:00.892Z,110336.00
2022-08-03T10:16:21.662Z,104768.00
2022-08-03T10:17:01.852Z,111424.00
2022-08-03T10:18:00.850Z,112672.00
2022-08-03T10:19:00.862Z,101472.00
2022-08-03T10:20:00.844Z,108416.00
2022-08-03T10:21:00.915Z,115520.00
2022-08-03T10:22:00.808Z,115424.00
2022-08-03T10:23:01.356Z,114720.00
2022-08-03T10:24:00.796Z,111776.00
2022-08-03T10:25:00.804Z,113216.00
2022-08-03T10:26:00.777Z,113120.00
2022-08-03T10:27:00.777Z,112928.00
2022-08-03T10:28:00.779Z,113280.00
2022-08-03T10:29:00.763Z,111808.00
2022-08-03T10:30:00.746Z,113792.00
2022-08-03T10:31:00.760Z,113344.00
2022-08-03T10:32:00.732Z,114784.00
2022-08-03T10:33:00.723Z,113568.00
2022-08-03T10:34:00.956Z,112768.00
2022-08-03T10:35:04.051Z,113856.00
2022-08-03T10:36:01.716Z,113344.00
2022-08-03T10:37:00.706Z,113216.00
2022-08-03T10:38:00.690Z,115968.00
2022-08-03T10:39:00.682Z,117920.00
2022-08-03T10:40:00.682Z,112704.00
2022-08-03T10:41:00.659Z,110176.00
2022-08-03T10:42:02.652Z,97184.00
2022-08-03T10:43:00.642Z,100448.00
2022-08-03T10:44:00.655Z,101344.00
2022-08-03T10:45:00.648Z,97952.00
2022-08-03T10:46:00.618Z,102720.00
2022-08-03T10:47:00.640Z,105472.00
2022-08-03T10:48:00.604Z,100448.00
2022-08-03T10:49:00.967Z,105376.00
2022-08-03T10:50:00.586Z,104864.00
2022-08-03T10:51:00.599Z,109312.00
2022-08-03T10:52:00.584Z,113312.00
2022-08-03T10:53:03.807Z,112928.00
2022-08-03T10:54:01.722Z,113472.00
2022-08-03T10:55:00.566Z,113536.00
2022-08-03T10:56:00.559Z,113248.00
2022-08-03T10:57:03.376Z,112192.00
2022-08-03T10:58:01.528Z,112192.00
2022-08-03T10:59:00.562Z,111776.00
2022-08-03T11:00:00.592Z,111680.00
2022-08-03T11:01:00.590Z,113088.00
2022-08-03T11:02:01.222Z,107136.00
2022-08-03T11:03:00.486Z,110240.00
2022-08-03T11:04:00.490Z,110592.00
2022-08-03T11:05:00.475Z,111776.00
2022-08-03T11:06:00.491Z,113216.00
2022-08-03T11:07:00.454Z,108832.00
2022-08-03T11:08:00.461Z,108032.00
2022-08-03T11:09:00.456Z,104832.00
2022-08-03T11:10:00.447Z,107520.00
2022-08-03T11:11:00.430Z,111904.00
2022-08-03T11:12:00.480Z,112736.00
2022-08-03T11:13:00.413Z,113152.00
2022-08-03T11:14:00.920Z,113824.00
2022-08-03T11:15:00.393Z,110592.00
2022-08-03T11:16:02.202Z,111872.00
2022-08-03T11:17:00.381Z,110528.00
2022-08-03T11:18:00.395Z,108992.00
2022-08-03T11:19:00.375Z,109312.00
2022-08-03T11:20:00.362Z,105536.00
2022-08-03T11:21:00.369Z,108928.00
2022-08-03T11:22:00.340Z,103392.00
2022-08-03T11:23:00.352Z,103040.00
2022-08-03T11:24:04.514Z,103360.00
2022-08-03T11:25:01.351Z,100256.00
2022-08-03T11:26:00.351Z,93248.00
2022-08-03T11:27:05.566Z,96960.00
2022-08-03T11:28:01.324Z,101632.00
2022-08-03T11:29:00.573Z,96512.00
2022-08-03T11:30:00.292Z,94048.00
2022-08-03T11:31:00.282Z,92160.00
2022-08-03T11:32:00.266Z,93056.00
2022-08-03T11:33:00.275Z,96576.00
2022-08-03T11:34:00.280Z,97088.00
2022-08-03T11:35:00.246Z,103136.00
2022-08-03T11:36:00.250Z,104224.00
2022-08-03T11:37:00.223Z,106912.00
2022-08-03T11:38:04.396Z,106816.00
2022-08-03T11:39:01.235Z,105376.00
2022-08-03T11:40:02.385Z,99072.00
2022-08-03T11:41:00.193Z,104544.00
2022-08-03T11:42:00.492Z,107968.00
2022-08-03T11:43:00.195Z,103968.00
2022-08-03T11:44:00.203Z,106944.00
2022-08-03T11:45:00.162Z,107168.00
2022-08-03T11:46:00.315Z,108768.00
2022-08-03T11:47:00.142Z,109472.00
2022-08-03T11:48:00.432Z,109280.00
2022-08-03T11:49:00.217Z,108320.00
2022-08-03T11:50:00.288Z,102560.00
2022-08-03T11:51:00.111Z,88448.00
2022-08-03T11:52:00.112Z,97120.00
2022-08-03T11:53:00.096Z,102912.00
2022-08-03T11:54:00.116Z,102272.00
2022-08-03T11:55:00.089Z,97088.00
2022-08-03T11:56:00.109Z,90752.00
2022-08-03T11:57:00.088Z,94880.00
2022-08-03T11:59:15.187Z,93696.00
2022-08-03T11:59:20.226Z,101504.00
2022-08-03T12:00:01.050Z,104896.00
2022-08-03T12:01:00.428Z,102432.00
2022-08-03T12:02:00.032Z,104256.00
2022-08-03T12:03:00.114Z,100384.00
2022-08-03T12:04:00.031Z,100736.00
2022-08-03T12:05:00.120Z,98560.00
2022-08-03T12:06:00.002Z,100832.00
2022-08-03T12:07:00.029Z,100576.00
2022-08-03T12:08:04.342Z,97536.00